Huvudsida
METAR-TAF:

METAR-TAF

Flygplatser :

Tammerfors-Birkala flygplats

Tammerfors, Finland

latitud: 61-25N, longitud: 023-35E, höjd: 112 m

Aktuellt väderrapport

Denna rapport gjordes för 14 minuter sedan, klockan 04:20 UTC
Vind 8 kt från sydväst
Temperatur 0°C
Fuktighet 93%
Tryck 991 hPa
Sikt 10 km eller mer
Spridda moln på en höjd av 1000 ft

METAR: EFTP 190420Z AUTO 23008KT 9999 SCT010 00/M01 Q0991

Tid: 06:34 (04:34 UTC)

Väderprognos

Denna rapport gjordes för 2 timmar och 4 minuter sedan, klockan 02:30 UTC
Prognos gäller från 19 kl. 03 UTC till 20 kl. 03 UTC
Vind 9 kt från sydväst
Sikt 10 km eller mer
Inga moln under 1 500 m eller inga cumulonimbus
Temporärt
från 19 kl. 07 UTC till 19 kl. 11 UTC
Brutna moln på en höjd av 1200 ft
Sannolikhet 30%
från 19 kl. 07 UTC till 19 kl. 10 UTC
Brutna moln på en höjd av 900 ft

TAF: EFTP 190230Z 1903/2003 22009KT CAVOK TEMPO 1907/1911 BKN012 PROB30 1907/1910 BKN009

Aktuella väderrapporter och prognoser från 4000 flygplatser (METAR- och TAF-rapporter).

De tillgängliga stationerna syns som gula och röda prickar på kartan.

För musen över prickarna för att se namnen på stationerna.

Klicka sedan för att få väderrapporter och prognoser.

För att ändra kartan: Klicka på de gröna knapparna med ett svart kors på för att zooma in; den gröna knappen med ett streck på för att zooma ut; eller på de gröna pilarna för angränsande kartor.


METAR-TAF: